sensor_id;sensor_type;location;lat;lon;timestamp;P1;durP1;ratioP1;P2;durP2;ratioP2
72864;SDS011;61000;48.120;11.548;2023-05-14T00:01:19;21.10;;;14.57;;
72864;SDS011;61000;48.120;11.548;2023-05-14T00:03:46;23.05;;;14.50;;
72864;SDS011;61000;48.120;11.548;2023-05-14T00:06:13;21.17;;;14.20;;
72864;SDS011;61000;48.120;11.548;2023-05-14T00:08:40;21.05;;;14.38;;
72864;SDS011;61000;48.120;11.548;2023-05-14T00:11:07;20.50;;;13.57;;
72864;SDS011;61000;48.120;11.548;2023-05-14T00:13:34;19.10;;;13.55;;
72864;SDS011;61000;48.120;11.548;2023-05-14T00:16:02;20.45;;;14.32;;
72864;SDS011;61000;48.120;11.548;2023-05-14T00:18:30;17.67;;;12.98;;
72864;SDS011;61000;48.120;11.548;2023-05-14T00:20:57;20.88;;;14.65;;
72864;SDS011;61000;48.120;11.548;2023-05-14T00:23:24;22.45;;;15.05;;
72864;SDS011;61000;48.120;11.548;2023-05-14T00:25:51;19.67;;;13.68;;
72864;SDS011;61000;48.120;11.548;2023-05-14T00:28:17;20.50;;;14.80;;
72864;SDS011;61000;48.120;11.548;2023-05-14T00:30:45;21.63;;;14.15;;
72864;SDS011;61000;48.120;11.548;2023-05-14T00:33:13;22.20;;;14.88;;
72864;SDS011;61000;48.120;11.548;2023-05-14T00:35:40;24.13;;;15.48;;
72864;SDS011;61000;48.120;11.548;2023-05-14T00:38:07;21.17;;;14.35;;
72864;SDS011;61000;48.120;11.548;2023-05-14T00:40:34;25.50;;;16.23;;
72864;SDS011;61000;48.120;11.548;2023-05-14T00:43:01;21.52;;;15.00;;
72864;SDS011;61000;48.120;11.548;2023-05-14T00:45:28;22.23;;;15.40;;
72864;SDS011;61000;48.120;11.548;2023-05-14T00:47:55;22.10;;;14.45;;
72864;SDS011;61000;48.120;11.548;2023-05-14T00:50:23;20.85;;;14.32;;
72864;SDS011;61000;48.120;11.548;2023-05-14T00:52:50;24.20;;;15.25;;
72864;SDS011;61000;48.120;11.548;2023-05-14T00:55:17;20.67;;;14.07;;
72864;SDS011;61000;48.120;11.548;2023-05-14T00:57:45;20.65;;;14.27;;
72864;SDS011;61000;48.120;11.548;2023-05-14T01:00:12;20.33;;;12.70;;
72864;SDS011;61000;48.120;11.548;2023-05-14T01:02:39;23.38;;;14.00;;
72864;SDS011;61000;48.120;11.548;2023-05-14T01:05:07;22.15;;;14.65;;
72864;SDS011;61000;48.120;11.548;2023-05-14T01:07:38;21.10;;;14.60;;
72864;SDS011;61000;48.120;11.548;2023-05-14T01:10:19;20.88;;;14.45;;
72864;SDS011;61000;48.120;11.548;2023-05-14T01:12:57;19.20;;;13.82;;
72864;SDS011;61000;48.120;11.548;2023-05-14T01:15:30;25.65;;;15.98;;
72864;SDS011;61000;48.120;11.548;2023-05-14T01:17:58;23.65;;;15.55;;
72864;SDS011;61000;48.120;11.548;2023-05-14T01:20:29;22.00;;;13.57;;
72864;SDS011;61000;48.120;11.548;2023-05-14T01:22:57;24.70;;;13.85;;
72864;SDS011;61000;48.120;11.548;2023-05-14T01:25:24;23.13;;;15.50;;
72864;SDS011;61000;48.120;11.548;2023-05-14T01:27:53;25.13;;;16.88;;
72864;SDS011;61000;48.120;11.548;2023-05-14T01:30:27;25.75;;;16.08;;
72864;SDS011;61000;48.120;11.548;2023-05-14T01:32:57;22.02;;;14.32;;
72864;SDS011;61000;48.120;11.548;2023-05-14T01:35:26;20.63;;;14.00;;
72864;SDS011;61000;48.120;11.548;2023-05-14T01:37:55;22.05;;;15.15;;
72864;SDS011;61000;48.120;11.548;2023-05-14T01:40:25;25.02;;;14.43;;
72864;SDS011;61000;48.120;11.548;2023-05-14T01:42:53;22.90;;;15.45;;
72864;SDS011;61000;48.120;11.548;2023-05-14T01:45:20;21.75;;;14.32;;
72864;SDS011;61000;48.120;11.548;2023-05-14T01:47:47;23.35;;;15.13;;
72864;SDS011;61000;48.120;11.548;2023-05-14T01:50:14;20.33;;;15.20;;
72864;SDS011;61000;48.120;11.548;2023-05-14T01:52:41;25.83;;;14.73;;
72864;SDS011;61000;48.120;11.548;2023-05-14T01:55:10;21.58;;;14.25;;
72864;SDS011;61000;48.120;11.548;2023-05-14T01:57:36;23.17;;;14.68;;
72864;SDS011;61000;48.120;11.548;2023-05-14T02:00:04;21.60;;;13.68;;
72864;SDS011;61000;48.120;11.548;2023-05-14T02:02:39;20.63;;;13.93;;
72864;SDS011;61000;48.120;11.548;2023-05-14T02:05:07;21.90;;;14.23;;
72864;SDS011;61000;48.120;11.548;2023-05-14T02:07:35;23.13;;;13.68;;
72864;SDS011;61000;48.120;11.548;2023-05-14T02:10:02;20.92;;;12.90;;
72864;SDS011;61000;48.120;11.548;2023-05-14T02:12:31;20.45;;;13.52;;
72864;SDS011;61000;48.120;11.548;2023-05-14T02:14:58;21.23;;;13.65;;
72864;SDS011;61000;48.120;11.548;2023-05-14T02:17:26;19.85;;;13.27;;
72864;SDS011;61000;48.120;11.548;2023-05-14T02:19:53;27.02;;;14.52;;
72864;SDS011;61000;48.120;11.548;2023-05-14T02:22:20;22.00;;;14.02;;
72864;SDS011;61000;48.120;11.548;2023-05-14T02:24:47;23.50;;;14.70;;
72864;SDS011;61000;48.120;11.548;2023-05-14T02:27:16;26.52;;;15.25;;
72864;SDS011;61000;48.120;11.548;2023-05-14T02:29:45;23.05;;;14.82;;
72864;SDS011;61000;48.120;11.548;2023-05-14T02:32:12;30.23;;;15.23;;
72864;SDS011;61000;48.120;11.548;2023-05-14T02:34:39;27.55;;;15.43;;
72864;SDS011;61000;48.120;11.548;2023-05-14T02:37:06;26.27;;;16.02;;
72864;SDS011;61000;48.120;11.548;2023-05-14T02:39:33;30.85;;;17.88;;
72864;SDS011;61000;48.120;11.548;2023-05-14T02:42:00;28.85;;;18.10;;
72864;SDS011;61000;48.120;11.548;2023-05-14T02:44:26;23.75;;;15.32;;
72864;SDS011;61000;48.120;11.548;2023-05-14T02:46:57;28.30;;;17.33;;
72864;SDS011;61000;48.120;11.548;2023-05-14T02:49:24;26.30;;;15.88;;
72864;SDS011;61000;48.120;11.548;2023-05-14T02:51:51;23.65;;;15.05;;
72864;SDS011;61000;48.120;11.548;2023-05-14T02:54:18;26.30;;;16.23;;
72864;SDS011;61000;48.120;11.548;2023-05-14T02:56:45;27.45;;;16.92;;
72864;SDS011;61000;48.120;11.548;2023-05-14T02:59:12;29.58;;;17.00;;
72864;SDS011;61000;48.120;11.548;2023-05-14T03:01:39;26.13;;;16.98;;
72864;SDS011;61000;48.120;11.548;2023-05-14T03:04:08;24.90;;;16.13;;
72864;SDS011;61000;48.120;11.548;2023-05-14T03:06:35;28.67;;;16.98;;
72864;SDS011;61000;48.120;11.548;2023-05-14T03:09:01;29.70;;;17.08;;
72864;SDS011;61000;48.120;11.548;2023-05-14T03:11:28;25.13;;;15.88;;
72864;SDS011;61000;48.120;11.548;2023-05-14T03:13:55;26.98;;;15.57;;
72864;SDS011;61000;48.120;11.548;2023-05-14T03:16:22;25.13;;;15.90;;
72864;SDS011;61000;48.120;11.548;2023-05-14T03:18:49;26.38;;;15.63;;
72864;SDS011;61000;48.120;11.548;2023-05-14T03:21:17;23.17;;;15.88;;
72864;SDS011;61000;48.120;11.548;2023-05-14T03:23:44;26.80;;;16.58;;
72864;SDS011;61000;48.120;11.548;2023-05-14T03:26:11;24.02;;;15.18;;
72864;SDS011;61000;48.120;11.548;2023-05-14T03:28:38;27.63;;;16.30;;
72864;SDS011;61000;48.120;11.548;2023-05-14T03:31:05;26.75;;;16.23;;
72864;SDS011;61000;48.120;11.548;2023-05-14T03:33:32;25.40;;;16.30;;
72864;SDS011;61000;48.120;11.548;2023-05-14T03:35:59;26.80;;;15.98;;
72864;SDS011;61000;48.120;11.548;2023-05-14T03:38:28;23.42;;;15.70;;
72864;SDS011;61000;48.120;11.548;2023-05-14T03:40:55;28.98;;;15.77;;
72864;SDS011;61000;48.120;11.548;2023-05-14T03:43:22;28.35;;;15.90;;
72864;SDS011;61000;48.120;11.548;2023-05-14T03:45:50;26.05;;;15.82;;
72864;SDS011;61000;48.120;11.548;2023-05-14T03:48:17;28.05;;;16.52;;
72864;SDS011;61000;48.120;11.548;2023-05-14T03:50:44;24.90;;;16.52;;
72864;SDS011;61000;48.120;11.548;2023-05-14T03:53:11;27.08;;;15.80;;
72864;SDS011;61000;48.120;11.548;2023-05-14T03:55:39;27.27;;;16.00;;
72864;SDS011;61000;48.120;11.548;2023-05-14T03:58:09;26.75;;;15.88;;
72864;SDS011;61000;48.120;11.548;2023-05-14T04:00:39;26.00;;;16.40;;
72864;SDS011;61000;48.120;11.548;2023-05-14T04:03:06;27.17;;;16.95;;
72864;SDS011;61000;48.120;11.548;2023-05-14T04:05:33;31.90;;;17.08;;
72864;SDS011;61000;48.120;11.548;2023-05-14T04:08:00;25.10;;;15.07;;
72864;SDS011;61000;48.120;11.548;2023-05-14T04:10:27;28.48;;;16.88;;
72864;SDS011;61000;48.120;11.548;2023-05-14T04:12:55;24.80;;;16.92;;
72864;SDS011;61000;48.120;11.548;2023-05-14T04:15:27;24.25;;;16.00;;
72864;SDS011;61000;48.120;11.548;2023-05-14T04:17:54;25.13;;;16.25;;
72864;SDS011;61000;48.120;11.548;2023-05-14T04:20:20;26.88;;;16.23;;
72864;SDS011;61000;48.120;11.548;2023-05-14T04:22:48;28.08;;;17.27;;
72864;SDS011;61000;48.120;11.548;2023-05-14T04:25:15;25.63;;;15.48;;
72864;SDS011;61000;48.120;11.548;2023-05-14T04:27:42;26.92;;;15.45;;
72864;SDS011;61000;48.120;11.548;2023-05-14T04:30:11;27.02;;;15.15;;
72864;SDS011;61000;48.120;11.548;2023-05-14T04:32:38;26.02;;;15.65;;
72864;SDS011;61000;48.120;11.548;2023-05-14T04:35:06;26.10;;;16.10;;
72864;SDS011;61000;48.120;11.548;2023-05-14T04:37:34;26.40;;;15.90;;
72864;SDS011;61000;48.120;11.548;2023-05-14T04:40:01;27.42;;;16.88;;
72864;SDS011;61000;48.120;11.548;2023-05-14T04:42:27;23.85;;;15.10;;
72864;SDS011;61000;48.120;11.548;2023-05-14T04:44:57;27.42;;;15.98;;
72864;SDS011;61000;48.120;11.548;2023-05-14T04:47:25;24.90;;;15.93;;
72864;SDS011;61000;48.120;11.548;2023-05-14T04:49:52;26.80;;;17.08;;
72864;SDS011;61000;48.120;11.548;2023-05-14T04:52:20;30.90;;;18.05;;
72864;SDS011;61000;48.120;11.548;2023-05-14T04:54:47;31.42;;;17.63;;
72864;SDS011;61000;48.120;11.548;2023-05-14T04:57:14;32.75;;;18.30;;
72864;SDS011;61000;48.120;11.548;2023-05-14T04:59:41;31.35;;;18.55;;
72864;SDS011;61000;48.120;11.548;2023-05-14T05:02:08;33.33;;;17.90;;
72864;SDS011;61000;48.120;11.548;2023-05-14T05:04:37;32.10;;;18.08;;
72864;SDS011;61000;48.120;11.548;2023-05-14T05:07:04;32.83;;;18.48;;
72864;SDS011;61000;48.120;11.548;2023-05-14T05:09:31;31.35;;;17.25;;
72864;SDS011;61000;48.120;11.548;2023-05-14T05:11:58;32.95;;;17.75;;
72864;SDS011;61000;48.120;11.548;2023-05-14T05:14:25;34.45;;;18.00;;
72864;SDS011;61000;48.120;11.548;2023-05-14T05:16:52;32.15;;;18.33;;
72864;SDS011;61000;48.120;11.548;2023-05-14T05:19:19;34.88;;;17.70;;
72864;SDS011;61000;48.120;11.548;2023-05-14T05:21:47;37.15;;;18.38;;
72864;SDS011;61000;48.120;11.548;2023-05-14T05:24:15;33.08;;;17.95;;
72864;SDS011;61000;48.120;11.548;2023-05-14T05:26:42;31.73;;;17.83;;
72864;SDS011;61000;48.120;11.548;2023-05-14T05:29:09;32.25;;;17.92;;
72864;SDS011;61000;48.120;11.548;2023-05-14T05:31:35;35.30;;;18.48;;
72864;SDS011;61000;48.120;11.548;2023-05-14T05:34:03;36.17;;;19.15;;
72864;SDS011;61000;48.120;11.548;2023-05-14T05:36:30;32.65;;;18.17;;
72864;SDS011;61000;48.120;11.548;2023-05-14T05:38:58;32.97;;;18.02;;
72864;SDS011;61000;48.120;11.548;2023-05-14T05:41:25;32.15;;;18.05;;
72864;SDS011;61000;48.120;11.548;2023-05-14T05:43:52;32.25;;;18.58;;
72864;SDS011;61000;48.120;11.548;2023-05-14T05:46:19;32.42;;;19.23;;
72864;SDS011;61000;48.120;11.548;2023-05-14T05:48:46;33.45;;;19.15;;
72864;SDS011;61000;48.120;11.548;2023-05-14T05:51:12;36.83;;;18.50;;
72864;SDS011;61000;48.120;11.548;2023-05-14T05:53:39;31.40;;;18.50;;
72864;SDS011;61000;48.120;11.548;2023-05-14T05:56:08;32.97;;;20.23;;
72864;SDS011;61000;48.120;11.548;2023-05-14T05:58:34;33.88;;;18.23;;
72864;SDS011;61000;48.120;11.548;2023-05-14T06:01:01;34.53;;;19.33;;
72864;SDS011;61000;48.120;11.548;2023-05-14T06:03:28;35.60;;;19.65;;
72864;SDS011;61000;48.120;11.548;2023-05-14T06:05:55;31.73;;;18.75;;
72864;SDS011;61000;48.120;11.548;2023-05-14T06:08:22;34.78;;;19.45;;
72864;SDS011;61000;48.120;11.548;2023-05-14T06:10:49;31.67;;;17.23;;
72864;SDS011;61000;48.120;11.548;2023-05-14T06:13:17;28.55;;;17.27;;
72864;SDS011;61000;48.120;11.548;2023-05-14T06:15:44;32.45;;;17.15;;
72864;SDS011;61000;48.120;11.548;2023-05-14T06:18:11;32.35;;;17.77;;
72864;SDS011;61000;48.120;11.548;2023-05-14T06:20:38;32.97;;;17.38;;
72864;SDS011;61000;48.120;11.548;2023-05-14T06:23:08;35.13;;;17.92;;
72864;SDS011;61000;48.120;11.548;2023-05-14T06:25:36;27.08;;;16.75;;
72864;SDS011;61000;48.120;11.548;2023-05-14T06:28:03;32.33;;;17.42;;
72864;SDS011;61000;48.120;11.548;2023-05-14T06:30:31;30.08;;;15.55;;
72864;SDS011;61000;48.120;11.548;2023-05-14T06:32:58;27.45;;;16.40;;
72864;SDS011;61000;48.120;11.548;2023-05-14T06:35:26;32.05;;;18.65;;
72864;SDS011;61000;48.120;11.548;2023-05-14T06:37:53;29.70;;;17.48;;
72864;SDS011;61000;48.120;11.548;2023-05-14T06:40:20;30.38;;;17.73;;
72864;SDS011;61000;48.120;11.548;2023-05-14T06:42:46;34.08;;;16.30;;
72864;SDS011;61000;48.120;11.548;2023-05-14T06:45:13;30.55;;;17.88;;
72864;SDS011;61000;48.120;11.548;2023-05-14T06:47:42;28.30;;;16.30;;
72864;SDS011;61000;48.120;11.548;2023-05-14T06:50:09;30.83;;;17.42;;
72864;SDS011;61000;48.120;11.548;2023-05-14T06:52:37;26.92;;;15.60;;
72864;SDS011;61000;48.120;11.548;2023-05-14T06:55:04;25.25;;;15.07;;
72864;SDS011;61000;48.120;11.548;2023-05-14T06:57:31;26.30;;;16.23;;
72864;SDS011;61000;48.120;11.548;2023-05-14T06:59:59;28.77;;;16.25;;
72864;SDS011;61000;48.120;11.548;2023-05-14T07:02:26;28.17;;;16.63;;
72864;SDS011;61000;48.120;11.548;2023-05-14T07:04:54;46.85;;;27.83;;
72864;SDS011;61000;48.120;11.548;2023-05-14T07:07:21;28.55;;;17.10;;
72864;SDS011;61000;48.120;11.548;2023-05-14T07:09:47;29.23;;;16.95;;
72864;SDS011;61000;48.120;11.548;2023-05-14T07:12:15;26.88;;;16.83;;
72864;SDS011;61000;48.120;11.548;2023-05-14T07:14:42;26.05;;;15.32;;
72864;SDS011;61000;48.120;11.548;2023-05-14T07:17:08;26.25;;;16.17;;
72864;SDS011;61000;48.120;11.548;2023-05-14T07:19:36;24.67;;;16.42;;
72864;SDS011;61000;48.120;11.548;2023-05-14T07:22:04;26.88;;;15.60;;
72864;SDS011;61000;48.120;11.548;2023-05-14T07:24:31;28.73;;;18.17;;
72864;SDS011;61000;48.120;11.548;2023-05-14T07:26:58;22.83;;;14.90;;
72864;SDS011;61000;48.120;11.548;2023-05-14T07:29:25;22.75;;;15.15;;
72864;SDS011;61000;48.120;11.548;2023-05-14T07:31:54;27.95;;;15.80;;
72864;SDS011;61000;48.120;11.548;2023-05-14T07:34:21;21.70;;;14.27;;
72864;SDS011;61000;48.120;11.548;2023-05-14T07:36:48;22.95;;;13.65;;
72864;SDS011;61000;48.120;11.548;2023-05-14T07:39:16;23.83;;;15.13;;
72864;SDS011;61000;48.120;11.548;2023-05-14T07:41:43;25.35;;;16.33;;
72864;SDS011;61000;48.120;11.548;2023-05-14T07:44:10;23.98;;;14.63;;
72864;SDS011;61000;48.120;11.548;2023-05-14T07:46:37;21.20;;;14.18;;
72864;SDS011;61000;48.120;11.548;2023-05-14T07:49:04;25.50;;;15.95;;
72864;SDS011;61000;48.120;11.548;2023-05-14T07:51:31;20.67;;;13.07;;
72864;SDS011;61000;48.120;11.548;2023-05-14T07:53:58;18.63;;;12.77;;
72864;SDS011;61000;48.120;11.548;2023-05-14T07:56:26;20.13;;;13.82;;
72864;SDS011;61000;48.120;11.548;2023-05-14T07:58:53;22.52;;;13.00;;
72864;SDS011;61000;48.120;11.548;2023-05-14T08:01:26;21.40;;;13.75;;
72864;SDS011;61000;48.120;11.548;2023-05-14T08:04:07;19.38;;;12.07;;
72864;SDS011;61000;48.120;11.548;2023-05-14T08:06:35;18.58;;;12.23;;
72864;SDS011;61000;48.120;11.548;2023-05-14T08:09:02;21.10;;;13.57;;
72864;SDS011;61000;48.120;11.548;2023-05-14T08:11:31;20.35;;;12.48;;
72864;SDS011;61000;48.120;11.548;2023-05-14T08:13:58;20.08;;;13.82;;
72864;SDS011;61000;48.120;11.548;2023-05-14T08:16:25;19.40;;;12.75;;
72864;SDS011;61000;48.120;11.548;2023-05-14T08:18:52;21.33;;;13.07;;
72864;SDS011;61000;48.120;11.548;2023-05-14T08:21:19;21.65;;;12.98;;
72864;SDS011;61000;48.120;11.548;2023-05-14T08:23:46;21.35;;;13.18;;
72864;SDS011;61000;48.120;11.548;2023-05-14T08:26:13;18.10;;;12.98;;
72864;SDS011;61000;48.120;11.548;2023-05-14T08:28:41;21.10;;;13.27;;
72864;SDS011;61000;48.120;11.548;2023-05-14T08:31:08;21.90;;;13.25;;
72864;SDS011;61000;48.120;11.548;2023-05-14T08:33:35;22.05;;;12.93;;
72864;SDS011;61000;48.120;11.548;2023-05-14T08:36:02;23.20;;;14.02;;
72864;SDS011;61000;48.120;11.548;2023-05-14T08:38:29;20.60;;;13.25;;
72864;SDS011;61000;48.120;11.548;2023-05-14T08:40:56;19.58;;;12.07;;
72864;SDS011;61000;48.120;11.548;2023-05-14T08:43:24;20.05;;;12.02;;
72864;SDS011;61000;48.120;11.548;2023-05-14T08:45:56;20.48;;;12.15;;
72864;SDS011;61000;48.120;11.548;2023-05-14T08:48:26;20.50;;;12.88;;
72864;SDS011;61000;48.120;11.548;2023-05-14T08:50:57;21.95;;;14.27;;
72864;SDS011;61000;48.120;11.548;2023-05-14T08:53:25;17.65;;;12.73;;
72864;SDS011;61000;48.120;11.548;2023-05-14T08:55:52;20.42;;;13.32;;
72864;SDS011;61000;48.120;11.548;2023-05-14T08:58:20;21.13;;;13.02;;
72864;SDS011;61000;48.120;11.548;2023-05-14T09:00:47;18.52;;;12.18;;
72864;SDS011;61000;48.120;11.548;2023-05-14T09:03:15;18.13;;;12.60;;
72864;SDS011;61000;48.120;11.548;2023-05-14T09:05:43;16.33;;;12.20;;
72864;SDS011;61000;48.120;11.548;2023-05-14T09:08:10;18.90;;;12.52;;
72864;SDS011;61000;48.120;11.548;2023-05-14T09:10:37;18.65;;;12.00;;
72864;SDS011;61000;48.120;11.548;2023-05-14T09:13:05;20.02;;;12.60;;
72864;SDS011;61000;48.120;11.548;2023-05-14T09:15:34;20.98;;;13.65;;
72864;SDS011;61000;48.120;11.548;2023-05-14T09:18:03;18.38;;;13.00;;
72864;SDS011;61000;48.120;11.548;2023-05-14T09:20:32;18.60;;;11.82;;
72864;SDS011;61000;48.120;11.548;2023-05-14T09:22:59;20.60;;;12.30;;
72864;SDS011;61000;48.120;11.548;2023-05-14T09:25:26;16.90;;;12.23;;
72864;SDS011;61000;48.120;11.548;2023-05-14T09:27:57;24.50;;;13.30;;
72864;SDS011;61000;48.120;11.548;2023-05-14T09:30:24;24.30;;;12.77;;
72864;SDS011;61000;48.120;11.548;2023-05-14T09:32:51;20.52;;;12.50;;
72864;SDS011;61000;48.120;11.548;2023-05-14T09:35:20;19.83;;;12.43;;
72864;SDS011;61000;48.120;11.548;2023-05-14T09:37:50;20.25;;;12.30;;
72864;SDS011;61000;48.120;11.548;2023-05-14T09:40:18;25.17;;;13.45;;
72864;SDS011;61000;48.120;11.548;2023-05-14T09:42:46;16.98;;;11.85;;
72864;SDS011;61000;48.120;11.548;2023-05-14T09:45:13;18.30;;;10.73;;
72864;SDS011;61000;48.120;11.548;2023-05-14T09:47:41;17.05;;;10.88;;
72864;SDS011;61000;48.120;11.548;2023-05-14T09:50:09;17.83;;;11.25;;
72864;SDS011;61000;48.120;11.548;2023-05-14T09:52:37;15.95;;;11.30;;
72864;SDS011;61000;48.120;11.548;2023-05-14T09:55:06;15.38;;;11.23;;
72864;SDS011;61000;48.120;11.548;2023-05-14T09:57:34;15.15;;;10.52;;
72864;SDS011;61000;48.120;11.548;2023-05-14T10:00:01;15.18;;;11.15;;
72864;SDS011;61000;48.120;11.548;2023-05-14T10:02:31;15.35;;;9.80;;
72864;SDS011;61000;48.120;11.548;2023-05-14T10:05:02;15.55;;;10.50;;
72864;SDS011;61000;48.120;11.548;2023-05-14T10:07:33;15.65;;;11.65;;
72864;SDS011;61000;48.120;11.548;2023-05-14T10:10:02;16.48;;;11.02;;
72864;SDS011;61000;48.120;11.548;2023-05-14T10:12:38;17.67;;;10.27;;
72864;SDS011;61000;48.120;11.548;2023-05-14T10:15:08;15.68;;;10.25;;
72864;SDS011;61000;48.120;11.548;2023-05-14T10:17:42;13.95;;;9.82;;
72864;SDS011;61000;48.120;11.548;2023-05-14T10:20:12;15.77;;;10.98;;
72864;SDS011;61000;48.120;11.548;2023-05-14T10:22:41;13.23;;;9.70;;
72864;SDS011;61000;48.120;11.548;2023-05-14T10:25:10;13.32;;;9.77;;
72864;SDS011;61000;48.120;11.548;2023-05-14T10:27:37;13.52;;;9.75;;
72864;SDS011;61000;48.120;11.548;2023-05-14T10:30:08;12.30;;;8.50;;
72864;SDS011;61000;48.120;11.548;2023-05-14T10:32:37;12.20;;;8.55;;
72864;SDS011;61000;48.120;11.548;2023-05-14T10:35:14;12.88;;;8.88;;
72864;SDS011;61000;48.120;11.548;2023-05-14T10:37:41;11.35;;;8.20;;
72864;SDS011;61000;48.120;11.548;2023-05-14T10:40:12;10.93;;;8.57;;
72864;SDS011;61000;48.120;11.548;2023-05-14T10:42:39;13.00;;;9.05;;
72864;SDS011;61000;48.120;11.548;2023-05-14T10:45:08;16.67;;;10.15;;
72864;SDS011;61000;48.120;11.548;2023-05-14T10:47:37;19.38;;;12.68;;
72864;SDS011;61000;48.120;11.548;2023-05-14T10:50:05;13.98;;;9.88;;
72864;SDS011;61000;48.120;11.548;2023-05-14T10:52:34;16.17;;;10.05;;
72864;SDS011;61000;48.120;11.548;2023-05-14T10:55:02;15.05;;;10.05;;
72864;SDS011;61000;48.120;11.548;2023-05-14T10:57:34;15.18;;;10.02;;
72864;SDS011;61000;48.120;11.548;2023-05-14T11:00:02;11.73;;;9.02;;
72864;SDS011;61000;48.120;11.548;2023-05-14T11:02:32;12.90;;;9.02;;
72864;SDS011;61000;48.120;11.548;2023-05-14T11:05:02;10.82;;;8.35;;
72864;SDS011;61000;48.120;11.548;2023-05-14T11:07:32;11.45;;;8.40;;
72864;SDS011;61000;48.120;11.548;2023-05-14T11:10:01;12.85;;;8.40;;
72864;SDS011;61000;48.120;11.548;2023-05-14T11:12:29;11.88;;;8.68;;
72864;SDS011;61000;48.120;11.548;2023-05-14T11:14:58;11.93;;;8.25;;
72864;SDS011;61000;48.120;11.548;2023-05-14T11:17:26;10.45;;;7.97;;
72864;SDS011;61000;48.120;11.548;2023-05-14T11:19:55;10.98;;;8.50;;
72864;SDS011;61000;48.120;11.548;2023-05-14T11:22:22;11.52;;;8.27;;
72864;SDS011;61000;48.120;11.548;2023-05-14T11:24:50;10.52;;;8.23;;
72864;SDS011;61000;48.120;11.548;2023-05-14T11:27:17;10.80;;;8.55;;
72864;SDS011;61000;48.120;11.548;2023-05-14T11:29:46;11.13;;;8.55;;
72864;SDS011;61000;48.120;11.548;2023-05-14T11:32:15;10.93;;;8.50;;
72864;SDS011;61000;48.120;11.548;2023-05-14T11:34:44;9.10;;;7.47;;
72864;SDS011;61000;48.120;11.548;2023-05-14T11:37:12;10.65;;;8.63;;
72864;SDS011;61000;48.120;11.548;2023-05-14T11:39:53;10.02;;;7.95;;
72864;SDS011;61000;48.120;11.548;2023-05-14T11:42:21;9.10;;;7.13;;
72864;SDS011;61000;48.120;11.548;2023-05-14T11:44:51;10.63;;;8.20;;
72864;SDS011;61000;48.120;11.548;2023-05-14T11:47:20;10.85;;;8.02;;
72864;SDS011;61000;48.120;11.548;2023-05-14T11:49:48;10.27;;;7.90;;
72864;SDS011;61000;48.120;11.548;2023-05-14T11:52:15;9.90;;;7.50;;
72864;SDS011;61000;48.120;11.548;2023-05-14T11:54:46;9.57;;;7.78;;
72864;SDS011;61000;48.120;11.548;2023-05-14T11:57:15;10.55;;;7.93;;
72864;SDS011;61000;48.120;11.548;2023-05-14T11:59:44;9.13;;;7.72;;
72864;SDS011;61000;48.120;11.548;2023-05-14T12:02:11;9.18;;;6.70;;
72864;SDS011;61000;48.120;11.548;2023-05-14T12:04:41;7.82;;;6.95;;
72864;SDS011;61000;48.120;11.548;2023-05-14T12:07:09;8.35;;;6.50;;
72864;SDS011;61000;48.120;11.548;2023-05-14T12:09:37;9.50;;;7.07;;
72864;SDS011;61000;48.120;11.548;2023-05-14T12:12:09;10.75;;;8.40;;
72864;SDS011;61000;48.120;11.548;2023-05-14T12:14:37;8.55;;;6.68;;
72864;SDS011;61000;48.120;11.548;2023-05-14T12:17:16;8.57;;;6.93;;
72864;SDS011;61000;48.120;11.548;2023-05-14T12:19:51;8.10;;;6.63;;
72864;SDS011;61000;48.120;11.548;2023-05-14T12:22:20;8.73;;;6.32;;
72864;SDS011;61000;48.120;11.548;2023-05-14T12:24:51;7.70;;;6.00;;
72864;SDS011;61000;48.120;11.548;2023-05-14T12:27:20;8.90;;;6.60;;
72864;SDS011;61000;48.120;11.548;2023-05-14T12:29:47;10.15;;;6.65;;
72864;SDS011;61000;48.120;11.548;2023-05-14T12:32:17;7.53;;;6.15;;
72864;SDS011;61000;48.120;11.548;2023-05-14T12:34:46;8.35;;;6.65;;
72864;SDS011;61000;48.120;11.548;2023-05-14T12:37:13;6.35;;;5.75;;
72864;SDS011;61000;48.120;11.548;2023-05-14T12:39:40;9.82;;;6.22;;
72864;SDS011;61000;48.120;11.548;2023-05-14T12:42:07;6.82;;;5.72;;
72864;SDS011;61000;48.120;11.548;2023-05-14T12:44:34;6.90;;;5.80;;
72864;SDS011;61000;48.120;11.548;2023-05-14T12:47:00;7.18;;;6.05;;
72864;SDS011;61000;48.120;11.548;2023-05-14T12:49:27;7.43;;;6.10;;
72864;SDS011;61000;48.120;11.548;2023-05-14T12:51:56;6.65;;;5.70;;
72864;SDS011;61000;48.120;11.548;2023-05-14T12:54:23;7.68;;;6.47;;
72864;SDS011;61000;48.120;11.548;2023-05-14T12:56:49;6.50;;;5.47;;
72864;SDS011;61000;48.120;11.548;2023-05-14T12:59:16;7.30;;;6.47;;
72864;SDS011;61000;48.120;11.548;2023-05-14T13:01:44;7.88;;;6.88;;
72864;SDS011;61000;48.120;11.548;2023-05-14T13:04:10;6.13;;;5.53;;
72864;SDS011;61000;48.120;11.548;2023-05-14T13:06:37;8.00;;;5.85;;
72864;SDS011;61000;48.120;11.548;2023-05-14T13:09:06;7.35;;;6.35;;
72864;SDS011;61000;48.120;11.548;2023-05-14T13:11:35;6.60;;;5.88;;
72864;SDS011;61000;48.120;11.548;2023-05-14T13:14:02;7.65;;;6.50;;
72864;SDS011;61000;48.120;11.548;2023-05-14T13:16:29;5.57;;;5.03;;
72864;SDS011;61000;48.120;11.548;2023-05-14T13:18:56;6.50;;;5.80;;
72864;SDS011;61000;48.120;11.548;2023-05-14T13:21:23;7.03;;;5.93;;
72864;SDS011;61000;48.120;11.548;2023-05-14T13:23:50;6.00;;;5.40;;
72864;SDS011;61000;48.120;11.548;2023-05-14T13:26:18;6.38;;;5.78;;
72864;SDS011;61000;48.120;11.548;2023-05-14T13:28:45;6.53;;;5.55;;
72864;SDS011;61000;48.120;11.548;2023-05-14T13:31:12;7.38;;;5.50;;
72864;SDS011;61000;48.120;11.548;2023-05-14T13:33:40;7.32;;;6.25;;
72864;SDS011;61000;48.120;11.548;2023-05-14T13:36:08;5.97;;;5.35;;
72864;SDS011;61000;48.120;11.548;2023-05-14T13:38:36;5.45;;;4.88;;
72864;SDS011;61000;48.120;11.548;2023-05-14T13:41:03;5.63;;;4.68;;
72864;SDS011;61000;48.120;11.548;2023-05-14T13:43:32;5.03;;;4.40;;
72864;SDS011;61000;48.120;11.548;2023-05-14T13:46:00;4.38;;;3.97;;
72864;SDS011;61000;48.120;11.548;2023-05-14T13:48:27;4.50;;;4.10;;
72864;SDS011;61000;48.120;11.548;2023-05-14T13:50:55;5.70;;;4.97;;
72864;SDS011;61000;48.120;11.548;2023-05-14T13:53:22;4.60;;;4.07;;
72864;SDS011;61000;48.120;11.548;2023-05-14T13:55:50;4.45;;;4.05;;
72864;SDS011;61000;48.120;11.548;2023-05-14T13:58:24;5.07;;;3.97;;
72864;SDS011;61000;48.120;11.548;2023-05-14T14:00:54;6.30;;;4.38;;
72864;SDS011;61000;48.120;11.548;2023-05-14T14:03:23;4.93;;;4.38;;
72864;SDS011;61000;48.120;11.548;2023-05-14T14:05:50;4.45;;;4.05;;
72864;SDS011;61000;48.120;11.548;2023-05-14T14:08:17;5.78;;;4.68;;
72864;SDS011;61000;48.120;11.548;2023-05-14T14:11:04;5.63;;;3.47;;
72864;SDS011;61000;48.120;11.548;2023-05-14T14:13:38;6.68;;;4.15;;
72864;SDS011;61000;48.120;11.548;2023-05-14T14:16:07;4.22;;;3.83;;
72864;SDS011;61000;48.120;11.548;2023-05-14T14:18:34;4.45;;;4.00;;